MUCU/SCU METAR and TAF weather

Enter ICAO airport designator
Station Type Date Time Source
MUCU METAR 2022/10/01 07:50 UTC NOAA

MUCU 010750Z 33003KT 9000 SCT020 24/23 Q1009


Station Type Date Time Source
MUCU Decoded METAR 2022/10/01 07:50 UTC NOAA

Santiago De Cuba, Oriente, Cuba (MUCU) 19-58N 075-51W 55M
Oct 01, 2022 - 03:50 AM EDT / 2022.10.01 0750 UTC
Wind: from the NNW (330 degrees) at 3 MPH (3 KT):0
Visibility: 5 mile(s):0
Sky conditions: partly cloudy
Temperature: 75 F (24 C)
Dew Point: 73 F (23 C)
Relative Humidity: 94%
Pressure (altimeter): 29.80 in. Hg (1009 hPa)
ob: MUCU 010750Z 33003KT 9000 SCT020 24/23 Q1009
cycle: 8

Station Type Date Time Source
MUCU TAF 2022/10/01 06:03 UTC NOAA

TAF MUCU 010500Z 0106/0206 03004KT 9000 SCT020 BKN070
BECMG 0114/0116 17008KT
TEMPO 0120/0124 FEW018CB BKN020

Example: see airport list